Terminal Aerodrome Forecast
Issued by NWS Norman, OK

Home | Current Version | Previous Version | Text Only | Print | Product List | Glossary On
Versions: 1 2 3 4 5 6 7 8 9 10 11 12 13 14 15 16 17 18 19 20 21 22 23 24
000
FTUS44 KOUN 030523
TAFSPS
TAF
KSPS 030523Z 0306/0406 18010KT P6SM FEW050 BKN200
     FM030700 19010KT P6SM BKN050 BKN120
     FM032100 16009KT P6SM BKN050
      TEMPO 0321/0324 P6SM TSRA BKN050CB
     FM040000 17007KT P6SM BKN050 OVC100 PROB30 0400/0404 P6SM TSRA
      BKN050CB=

USA.gov is the U.S. government's official web portal to all federal, state and local government web resources and services.